sensor_id;sensor_type;location;lat;lon;timestamp;pressure;altitude;pressure_sealevel;temperature;humidity
49297;BME280;35163;48.878;18.040;2023-06-14T00:01:04;98119.28;;;15.91;48.88
49297;BME280;35163;48.878;18.040;2023-06-14T00:03:35;98110.50;;;15.77;49.65
49297;BME280;35163;48.878;18.040;2023-06-14T00:06:02;98114.09;;;15.75;49.62
49297;BME280;35163;48.878;18.040;2023-06-14T00:08:28;98130.31;;;15.80;49.79
49297;BME280;35163;48.878;18.040;2023-06-14T00:10:55;98126.22;;;15.76;49.62
49297;BME280;35163;48.878;18.040;2023-06-14T00:13:27;98125.56;;;15.72;49.85
49297;BME280;35163;48.878;18.040;2023-06-14T00:15:57;98136.72;;;15.74;50.41
49297;BME280;35163;48.878;18.040;2023-06-14T00:18:31;98125.63;;;15.71;50.27
49297;BME280;35163;48.878;18.040;2023-06-14T00:20:57;98122.56;;;15.64;50.68
49297;BME280;35163;48.878;18.040;2023-06-14T00:23:27;98124.41;;;15.62;50.88
49297;BME280;35163;48.878;18.040;2023-06-14T00:25:53;98127.28;;;15.57;51.09
49297;BME280;35163;48.878;18.040;2023-06-14T00:28:20;98123.91;;;15.55;50.74
49297;BME280;35163;48.878;18.040;2023-06-14T00:30:47;98126.50;;;15.55;51.17
49297;BME280;35163;48.878;18.040;2023-06-14T00:33:17;98120.81;;;15.48;51.24
49297;BME280;35163;48.878;18.040;2023-06-14T00:35:43;98128.03;;;15.43;51.52
49297;BME280;35163;48.878;18.040;2023-06-14T00:38:11;98126.53;;;15.39;52.05
49297;BME280;35163;48.878;18.040;2023-06-14T00:40:37;98125.72;;;15.38;51.89
49297;BME280;35163;48.878;18.040;2023-06-14T00:43:06;98117.13;;;15.36;52.04
49297;BME280;35163;48.878;18.040;2023-06-14T00:45:33;98121.50;;;15.36;52.17
49297;BME280;35163;48.878;18.040;2023-06-14T00:48:05;98117.31;;;15.33;52.08
49297;BME280;35163;48.878;18.040;2023-06-14T00:50:34;98125.38;;;15.28;52.17
49297;BME280;35163;48.878;18.040;2023-06-14T00:53:01;98118.97;;;15.18;52.53
49297;BME280;35163;48.878;18.040;2023-06-14T00:55:28;98123.69;;;15.11;52.94
49297;BME280;35163;48.878;18.040;2023-06-14T00:57:55;98122.97;;;15.09;52.85
49297;BME280;35163;48.878;18.040;2023-06-14T01:00:22;98116.31;;;15.03;53.29
49297;BME280;35163;48.878;18.040;2023-06-14T01:02:49;98117.31;;;15.01;53.21
49297;BME280;35163;48.878;18.040;2023-06-14T01:05:21;98114.78;;;14.99;53.99
49297;BME280;35163;48.878;18.040;2023-06-14T01:08:11;98103.66;;;14.97;54.04
49297;BME280;35163;48.878;18.040;2023-06-14T01:10:52;98109.94;;;14.93;53.79
49297;BME280;35163;48.878;18.040;2023-06-14T01:13:37;98098.06;;;14.87;53.74
49297;BME280;35163;48.878;18.040;2023-06-14T01:16:06;98113.59;;;14.89;54.54
49297;BME280;35163;48.878;18.040;2023-06-14T01:18:37;98107.97;;;14.80;53.79
49297;BME280;35163;48.878;18.040;2023-06-14T01:21:20;98096.22;;;14.73;54.60
49297;BME280;35163;48.878;18.040;2023-06-14T01:23:49;98109.22;;;14.73;54.67
49297;BME280;35163;48.878;18.040;2023-06-14T01:26:21;98107.69;;;14.69;54.77
49297;BME280;35163;48.878;18.040;2023-06-14T01:28:49;98115.59;;;14.67;55.34
49297;BME280;35163;48.878;18.040;2023-06-14T01:31:19;98110.72;;;14.61;55.26
49297;BME280;35163;48.878;18.040;2023-06-14T01:33:49;98116.75;;;14.62;55.49
49297;BME280;35163;48.878;18.040;2023-06-14T01:36:19;98113.38;;;14.60;55.25
49297;BME280;35163;48.878;18.040;2023-06-14T01:38:46;98122.97;;;14.59;55.01
49297;BME280;35163;48.878;18.040;2023-06-14T01:41:18;98110.03;;;14.57;55.19
49297;BME280;35163;48.878;18.040;2023-06-14T01:43:47;98114.72;;;14.51;55.45
49297;BME280;35163;48.878;18.040;2023-06-14T01:46:20;98110.69;;;14.45;55.28
49297;BME280;35163;48.878;18.040;2023-06-14T01:48:50;98117.88;;;14.40;55.72
49297;BME280;35163;48.878;18.040;2023-06-14T01:51:17;98113.66;;;14.37;55.85
49297;BME280;35163;48.878;18.040;2023-06-14T01:53:45;98106.97;;;14.33;55.87
49297;BME280;35163;48.878;18.040;2023-06-14T01:56:13;98108.78;;;14.31;55.80
49297;BME280;35163;48.878;18.040;2023-06-14T01:58:39;98107.19;;;14.28;55.80
49297;BME280;35163;48.878;18.040;2023-06-14T02:01:07;98123.88;;;14.24;55.96
49297;BME280;35163;48.878;18.040;2023-06-14T02:03:37;98122.28;;;14.21;56.19
49297;BME280;35163;48.878;18.040;2023-06-14T02:06:05;98131.16;;;14.17;56.07
49297;BME280;35163;48.878;18.040;2023-06-14T02:08:32;98124.66;;;14.08;56.36
49297;BME280;35163;48.878;18.040;2023-06-14T02:10:59;98130.63;;;14.11;56.11
49297;BME280;35163;48.878;18.040;2023-06-14T02:13:26;98122.97;;;14.07;56.21
49297;BME280;35163;48.878;18.040;2023-06-14T02:15:53;98119.63;;;14.05;56.09
49297;BME280;35163;48.878;18.040;2023-06-14T02:18:22;98117.25;;;14.01;56.56
49297;BME280;35163;48.878;18.040;2023-06-14T02:20:49;98117.16;;;14.02;56.34
49297;BME280;35163;48.878;18.040;2023-06-14T02:23:16;98119.94;;;13.99;56.40
49297;BME280;35163;48.878;18.040;2023-06-14T02:25:43;98120.06;;;13.96;56.60
49297;BME280;35163;48.878;18.040;2023-06-14T02:28:11;98117.47;;;13.96;56.83
49297;BME280;35163;48.878;18.040;2023-06-14T02:30:38;98121.31;;;13.89;56.94
49297;BME280;35163;48.878;18.040;2023-06-14T02:33:05;98116.13;;;13.89;56.79
49297;BME280;35163;48.878;18.040;2023-06-14T02:35:32;98119.47;;;13.91;57.10
49297;BME280;35163;48.878;18.040;2023-06-14T02:37:59;98127.41;;;13.88;57.51
49297;BME280;35163;48.878;18.040;2023-06-14T02:40:25;98126.06;;;13.80;57.92
49297;BME280;35163;48.878;18.040;2023-06-14T02:42:52;98118.25;;;13.80;57.76
49297;BME280;35163;48.878;18.040;2023-06-14T02:45:19;98115.03;;;13.75;57.99
49297;BME280;35163;48.878;18.040;2023-06-14T02:47:47;98115.78;;;13.77;57.81
49297;BME280;35163;48.878;18.040;2023-06-14T02:50:14;98102.88;;;13.76;58.03
49297;BME280;35163;48.878;18.040;2023-06-14T02:52:42;98122.00;;;13.75;58.11
49297;BME280;35163;48.878;18.040;2023-06-14T02:55:11;98115.16;;;13.72;58.06
49297;BME280;35163;48.878;18.040;2023-06-14T02:57:38;98118.63;;;13.72;58.26
49297;BME280;35163;48.878;18.040;2023-06-14T03:00:05;98121.38;;;13.69;58.42
49297;BME280;35163;48.878;18.040;2023-06-14T03:02:36;98113.75;;;13.66;58.34
49297;BME280;35163;48.878;18.040;2023-06-14T03:05:03;98114.72;;;13.64;58.39
49297;BME280;35163;48.878;18.040;2023-06-14T03:07:31;98111.38;;;13.62;58.28
49297;BME280;35163;48.878;18.040;2023-06-14T03:09:57;98120.00;;;13.62;58.18
49297;BME280;35163;48.878;18.040;2023-06-14T03:12:24;98110.81;;;13.55;58.45
49297;BME280;35163;48.878;18.040;2023-06-14T03:14:51;98109.75;;;13.59;58.01
49297;BME280;35163;48.878;18.040;2023-06-14T03:17:18;98117.69;;;13.56;58.04
49297;BME280;35163;48.878;18.040;2023-06-14T03:19:46;98107.94;;;13.61;57.88
49297;BME280;35163;48.878;18.040;2023-06-14T03:22:12;98124.38;;;13.62;57.71
49297;BME280;35163;48.878;18.040;2023-06-14T03:24:39;98115.78;;;13.59;58.00
49297;BME280;35163;48.878;18.040;2023-06-14T03:27:08;98110.88;;;13.53;58.18
49297;BME280;35163;48.878;18.040;2023-06-14T03:29:36;98106.63;;;13.52;58.43
49297;BME280;35163;48.878;18.040;2023-06-14T03:32:04;98113.47;;;13.53;58.41
49297;BME280;35163;48.878;18.040;2023-06-14T03:34:30;98107.47;;;13.53;58.31
49297;BME280;35163;48.878;18.040;2023-06-14T03:36:57;98108.34;;;13.52;58.48
49297;BME280;35163;48.878;18.040;2023-06-14T03:39:24;98113.47;;;13.53;58.50
49297;BME280;35163;48.878;18.040;2023-06-14T03:41:50;98118.78;;;13.50;58.43
49297;BME280;35163;48.878;18.040;2023-06-14T03:44:18;98125.56;;;13.54;58.52
49297;BME280;35163;48.878;18.040;2023-06-14T03:46:46;98128.09;;;13.56;58.62
49297;BME280;35163;48.878;18.040;2023-06-14T03:49:13;98128.16;;;13.54;58.91
49297;BME280;35163;48.878;18.040;2023-06-14T03:51:40;98130.03;;;13.51;59.71
49297;BME280;35163;48.878;18.040;2023-06-14T03:54:07;98136.78;;;13.55;60.22
49297;BME280;35163;48.878;18.040;2023-06-14T03:56:37;98135.09;;;13.54;60.24
49297;BME280;35163;48.878;18.040;2023-06-14T03:59:04;98137.63;;;13.55;60.51
49297;BME280;35163;48.878;18.040;2023-06-14T04:01:30;98139.44;;;13.53;60.81
49297;BME280;35163;48.878;18.040;2023-06-14T04:03:57;98135.88;;;13.56;60.64
49297;BME280;35163;48.878;18.040;2023-06-14T04:06:25;98137.56;;;13.57;60.64
49297;BME280;35163;48.878;18.040;2023-06-14T04:09:00;98141.00;;;13.57;61.14
49297;BME280;35163;48.878;18.040;2023-06-14T04:11:34;98139.31;;;13.56;60.90
49297;BME280;35163;48.878;18.040;2023-06-14T04:14:02;98136.50;;;13.61;60.74
49297;BME280;35163;48.878;18.040;2023-06-14T04:16:29;98139.78;;;13.65;60.75
49297;BME280;35163;48.878;18.040;2023-06-14T04:18:56;98139.78;;;13.65;60.05
49297;BME280;35163;48.878;18.040;2023-06-14T04:21:24;98127.09;;;13.58;59.22
49297;BME280;35163;48.878;18.040;2023-06-14T04:23:54;98144.06;;;13.66;59.49
49297;BME280;35163;48.878;18.040;2023-06-14T04:26:22;98137.03;;;13.68;59.63
49297;BME280;35163;48.878;18.040;2023-06-14T04:28:52;98138.44;;;13.75;59.52
49297;BME280;35163;48.878;18.040;2023-06-14T04:31:19;98149.13;;;13.87;58.80
49297;BME280;35163;48.878;18.040;2023-06-14T04:33:48;98154.63;;;13.98;59.79
49297;BME280;35163;48.878;18.040;2023-06-14T04:36:16;98159.53;;;14.04;59.61
49297;BME280;35163;48.878;18.040;2023-06-14T04:38:44;98158.06;;;14.16;59.29
49297;BME280;35163;48.878;18.040;2023-06-14T04:41:16;98165.63;;;14.21;58.13
49297;BME280;35163;48.878;18.040;2023-06-14T04:43:46;98165.75;;;14.36;58.05
49297;BME280;35163;48.878;18.040;2023-06-14T04:46:15;98171.19;;;14.49;57.49
49297;BME280;35163;48.878;18.040;2023-06-14T04:48:51;98166.59;;;14.54;57.27
49297;BME280;35163;48.878;18.040;2023-06-14T04:51:17;98170.69;;;14.58;56.64
49297;BME280;35163;48.878;18.040;2023-06-14T04:53:48;98171.00;;;14.69;56.12
49297;BME280;35163;48.878;18.040;2023-06-14T04:56:16;98178.38;;;14.77;55.74
49297;BME280;35163;48.878;18.040;2023-06-14T04:58:43;98186.19;;;14.95;56.06
49297;BME280;35163;48.878;18.040;2023-06-14T05:01:10;98181.06;;;15.10;54.84
49297;BME280;35163;48.878;18.040;2023-06-14T05:03:37;98168.97;;;15.25;54.81
49297;BME280;35163;48.878;18.040;2023-06-14T05:06:04;98182.84;;;15.41;54.79
49297;BME280;35163;48.878;18.040;2023-06-14T05:08:31;98184.50;;;15.59;53.77
49297;BME280;35163;48.878;18.040;2023-06-14T05:10:57;98180.28;;;15.72;53.20
49297;BME280;35163;48.878;18.040;2023-06-14T05:13:24;98172.31;;;15.90;52.72
49297;BME280;35163;48.878;18.040;2023-06-14T05:15:54;98180.72;;;16.11;51.89
49297;BME280;35163;48.878;18.040;2023-06-14T05:18:21;98171.31;;;16.23;51.48
49297;BME280;35163;48.878;18.040;2023-06-14T05:20:48;98185.44;;;16.50;50.40
49297;BME280;35163;48.878;18.040;2023-06-14T05:23:14;98173.59;;;16.73;49.90
49297;BME280;35163;48.878;18.040;2023-06-14T05:25:43;98169.88;;;16.92;49.90
49297;BME280;35163;48.878;18.040;2023-06-14T05:28:10;98178.50;;;17.36;48.88
49297;BME280;35163;48.878;18.040;2023-06-14T05:30:39;98168.72;;;17.81;47.19
49297;BME280;35163;48.878;18.040;2023-06-14T05:33:08;98177.63;;;18.32;45.98
49297;BME280;35163;48.878;18.040;2023-06-14T05:35:35;98167.00;;;18.86;45.09
49297;BME280;35163;48.878;18.040;2023-06-14T05:38:02;98168.25;;;19.43;43.89
49297;BME280;35163;48.878;18.040;2023-06-14T05:40:32;98173.56;;;19.91;42.55
49297;BME280;35163;48.878;18.040;2023-06-14T05:42:59;98174.53;;;20.26;41.37
49297;BME280;35163;48.878;18.040;2023-06-14T05:45:25;98177.81;;;20.75;41.02
49297;BME280;35163;48.878;18.040;2023-06-14T05:47:52;98183.66;;;21.14;39.96
49297;BME280;35163;48.878;18.040;2023-06-14T05:50:21;98193.88;;;21.51;39.37
49297;BME280;35163;48.878;18.040;2023-06-14T05:52:50;98203.13;;;22.00;39.05
49297;BME280;35163;48.878;18.040;2023-06-14T05:58:49;98190.19;;;22.51;37.13
49297;BME280;35163;48.878;18.040;2023-06-14T06:01:20;98201.44;;;22.84;37.51
49297;BME280;35163;48.878;18.040;2023-06-14T06:04:01;98187.78;;;22.69;37.20
49297;BME280;35163;48.878;18.040;2023-06-14T06:06:42;98200.19;;;22.78;37.67
49297;BME280;35163;48.878;18.040;2023-06-14T06:09:36;98205.63;;;22.87;37.19
49297;BME280;35163;48.878;18.040;2023-06-14T06:12:05;98199.91;;;22.81;37.37
49297;BME280;35163;48.878;18.040;2023-06-14T06:14:44;98197.94;;;22.74;36.58
49297;BME280;35163;48.878;18.040;2023-06-14T06:17:11;98201.81;;;22.48;37.42
49297;BME280;35163;48.878;18.040;2023-06-14T06:19:38;98209.25;;;22.43;37.63
49297;BME280;35163;48.878;18.040;2023-06-14T06:22:04;98211.13;;;22.52;37.65
49297;BME280;35163;48.878;18.040;2023-06-14T06:24:32;98221.25;;;22.57;38.53
49297;BME280;35163;48.878;18.040;2023-06-14T06:26:59;98217.34;;;22.51;37.38
49297;BME280;35163;48.878;18.040;2023-06-14T06:29:26;98225.22;;;22.63;37.64
49297;BME280;35163;48.878;18.040;2023-06-14T06:31:53;98218.56;;;22.68;38.06
49297;BME280;35163;48.878;18.040;2023-06-14T06:34:20;98225.44;;;22.81;37.77
49297;BME280;35163;48.878;18.040;2023-06-14T06:36:47;98222.41;;;22.86;37.45
49297;BME280;35163;48.878;18.040;2023-06-14T06:39:14;98226.47;;;23.00;36.35
49297;BME280;35163;48.878;18.040;2023-06-14T06:41:47;98223.19;;;23.08;36.81
49297;BME280;35163;48.878;18.040;2023-06-14T06:44:13;98224.38;;;22.93;35.73
49297;BME280;35163;48.878;18.040;2023-06-14T06:46:40;98221.78;;;23.03;36.22
49297;BME280;35163;48.878;18.040;2023-06-14T06:49:08;98223.72;;;23.11;36.21
49297;BME280;35163;48.878;18.040;2023-06-14T06:51:35;98223.84;;;23.00;35.89
49297;BME280;35163;48.878;18.040;2023-06-14T06:54:05;98225.03;;;22.86;36.53
49297;BME280;35163;48.878;18.040;2023-06-14T06:56:32;98225.09;;;22.64;35.58
49297;BME280;35163;48.878;18.040;2023-06-14T06:58:59;98222.88;;;22.69;36.65
49297;BME280;35163;48.878;18.040;2023-06-14T07:01:26;98225.44;;;22.81;36.41
49297;BME280;35163;48.878;18.040;2023-06-14T07:03:55;98224.53;;;22.92;35.62
49297;BME280;35163;48.878;18.040;2023-06-14T07:06:23;98233.91;;;23.16;36.57
49297;BME280;35163;48.878;18.040;2023-06-14T07:08:53;98225.88;;;23.27;35.93
49297;BME280;35163;48.878;18.040;2023-06-14T07:11:20;98230.44;;;23.25;35.00
49297;BME280;35163;48.878;18.040;2023-06-14T07:13:47;98224.69;;;23.41;36.04
49297;BME280;35163;48.878;18.040;2023-06-14T07:16:14;98234.28;;;23.42;34.52
49297;BME280;35163;48.878;18.040;2023-06-14T07:18:41;98228.31;;;23.50;35.53
49297;BME280;35163;48.878;18.040;2023-06-14T07:21:07;98230.00;;;23.61;35.02
49297;BME280;35163;48.878;18.040;2023-06-14T07:23:35;98236.25;;;23.70;35.55
49297;BME280;35163;48.878;18.040;2023-06-14T07:26:02;98233.47;;;23.82;35.05
49297;BME280;35163;48.878;18.040;2023-06-14T07:28:29;98232.09;;;23.97;35.06
49297;BME280;35163;48.878;18.040;2023-06-14T07:30:56;98223.91;;;24.00;34.31
49297;BME280;35163;48.878;18.040;2023-06-14T07:33:23;98230.84;;;24.01;34.60
49297;BME280;35163;48.878;18.040;2023-06-14T07:35:54;98226.41;;;24.12;34.26
49297;BME280;35163;48.878;18.040;2023-06-14T07:38:30;98216.28;;;24.17;34.26
49297;BME280;35163;48.878;18.040;2023-06-14T07:44:07;98228.63;;;24.36;34.54
49297;BME280;35163;48.878;18.040;2023-06-14T07:46:34;98231.66;;;24.51;34.88
49297;BME280;35163;48.878;18.040;2023-06-14T07:49:01;98239.13;;;24.66;35.07
49297;BME280;35163;48.878;18.040;2023-06-14T07:51:38;98244.13;;;24.69;33.10
49297;BME280;35163;48.878;18.040;2023-06-14T07:54:07;98235.13;;;24.62;33.11
49297;BME280;35163;48.878;18.040;2023-06-14T07:56:37;98241.72;;;24.76;33.20
49297;BME280;35163;48.878;18.040;2023-06-14T07:59:10;98238.31;;;24.66;32.50
49297;BME280;35163;48.878;18.040;2023-06-14T08:01:38;98249.41;;;24.79;33.00
49297;BME280;35163;48.878;18.040;2023-06-14T08:04:12;98237.56;;;24.73;33.33
49297;BME280;35163;48.878;18.040;2023-06-14T08:06:39;98239.88;;;24.86;31.37
49297;BME280;35163;48.878;18.040;2023-06-14T08:09:08;98248.16;;;24.73;31.49
49297;BME280;35163;48.878;18.040;2023-06-14T08:11:37;98252.59;;;24.83;32.40
49297;BME280;35163;48.878;18.040;2023-06-14T08:14:05;98248.94;;;24.94;33.06
49297;BME280;35163;48.878;18.040;2023-06-14T08:16:32;98249.69;;;25.14;33.27
49297;BME280;35163;48.878;18.040;2023-06-14T08:18:59;98249.50;;;25.26;33.17
49297;BME280;35163;48.878;18.040;2023-06-14T08:21:29;98242.78;;;25.31;32.99
49297;BME280;35163;48.878;18.040;2023-06-14T08:23:57;98244.00;;;25.37;32.35
49297;BME280;35163;48.878;18.040;2023-06-14T08:26:26;98244.34;;;25.52;32.54
49297;BME280;35163;48.878;18.040;2023-06-14T08:28:56;98243.38;;;25.53;32.38
49297;BME280;35163;48.878;18.040;2023-06-14T08:31:23;98240.97;;;25.60;32.21
49297;BME280;35163;48.878;18.040;2023-06-14T08:33:51;98243.94;;;25.75;32.41
49297;BME280;35163;48.878;18.040;2023-06-14T08:36:18;98240.00;;;25.79;30.86
49297;BME280;35163;48.878;18.040;2023-06-14T08:38:44;98240.75;;;25.90;31.50
49297;BME280;35163;48.878;18.040;2023-06-14T08:41:20;98250.28;;;26.01;31.55
49297;BME280;35163;48.878;18.040;2023-06-14T08:43:58;98248.19;;;26.04;30.09
49297;BME280;35163;48.878;18.040;2023-06-14T08:46:26;98245.91;;;26.09;30.11
49297;BME280;35163;48.878;18.040;2023-06-14T08:48:55;98245.31;;;25.98;29.63
49297;BME280;35163;48.878;18.040;2023-06-14T08:51:25;98244.63;;;25.95;28.68
49297;BME280;35163;48.878;18.040;2023-06-14T08:53:55;98246.28;;;25.78;29.33
49297;BME280;35163;48.878;18.040;2023-06-14T08:56:28;98252.34;;;25.89;30.90
49297;BME280;35163;48.878;18.040;2023-06-14T08:58:57;98251.13;;;25.83;29.83
49297;BME280;35163;48.878;18.040;2023-06-14T09:01:26;98249.41;;;25.74;28.67
49297;BME280;35163;48.878;18.040;2023-06-14T09:03:55;98242.84;;;25.50;28.98
49297;BME280;35163;48.878;18.040;2023-06-14T09:06:23;98246.91;;;25.62;30.39
49297;BME280;35163;48.878;18.040;2023-06-14T09:08:52;98243.50;;;25.52;29.57
49297;BME280;35163;48.878;18.040;2023-06-14T09:11:22;98239.03;;;25.52;29.86
49297;BME280;35163;48.878;18.040;2023-06-14T09:13:49;98246.09;;;25.62;29.76
49297;BME280;35163;48.878;18.040;2023-06-14T09:16:19;98247.91;;;25.61;28.75
49297;BME280;35163;48.878;18.040;2023-06-14T09:19:24;98243.88;;;25.57;27.96
49297;BME280;35163;48.878;18.040;2023-06-14T09:21:52;98248.50;;;25.55;29.77
49297;BME280;35163;48.878;18.040;2023-06-14T09:24:23;98244.88;;;25.56;30.82
49297;BME280;35163;48.878;18.040;2023-06-14T09:26:53;98251.31;;;25.53;29.74
49297;BME280;35163;48.878;18.040;2023-06-14T09:29:59;98245.19;;;25.53;30.04
49297;BME280;35163;48.878;18.040;2023-06-14T09:32:31;98224.66;;;25.36;30.47
49297;BME280;35163;48.878;18.040;2023-06-14T09:34:59;98239.75;;;25.26;29.92
49297;BME280;35163;48.878;18.040;2023-06-14T09:37:33;98228.91;;;25.29;30.50
49297;BME280;35163;48.878;18.040;2023-06-14T09:40:05;98240.28;;;25.30;29.86
49297;BME280;35163;48.878;18.040;2023-06-14T09:42:39;98237.78;;;25.28;30.34
49297;BME280;35163;48.878;18.040;2023-06-14T09:45:13;98229.06;;;25.18;30.21
49297;BME280;35163;48.878;18.040;2023-06-14T09:47:54;98219.00;;;25.03;29.90
49297;BME280;35163;48.878;18.040;2023-06-14T09:50:34;98232.06;;;25.05;30.78
49297;BME280;35163;48.878;18.040;2023-06-14T09:53:22;98231.78;;;25.08;31.76
49297;BME280;35163;48.878;18.040;2023-06-14T09:55:54;98230.38;;;25.14;31.58
49297;BME280;35163;48.878;18.040;2023-06-14T10:01:30;98217.41;;;25.67;31.29
49297;BME280;35163;48.878;18.040;2023-06-14T10:04:20;98222.91;;;25.92;30.93
49297;BME280;35163;48.878;18.040;2023-06-14T10:06:54;98216.09;;;26.07;30.66
49297;BME280;35163;48.878;18.040;2023-06-14T10:09:42;98213.13;;;26.11;30.46
49297;BME280;35163;48.878;18.040;2023-06-14T10:12:37;98207.06;;;26.18;30.74
49297;BME280;35163;48.878;18.040;2023-06-14T10:15:13;98213.91;;;26.29;31.08
49297;BME280;35163;48.878;18.040;2023-06-14T10:24:06;98211.06;;;26.41;29.18
49297;BME280;35163;48.878;18.040;2023-06-14T10:27:07;98213.34;;;26.36;28.25
49297;BME280;35163;48.878;18.040;2023-06-14T10:30:03;98217.03;;;26.43;29.11
49297;BME280;35163;48.878;18.040;2023-06-14T10:33:06;98215.53;;;26.40;29.47
49297;BME280;35163;48.878;18.040;2023-06-14T10:35:34;98229.09;;;26.37;29.40
49297;BME280;35163;48.878;18.040;2023-06-14T10:38:16;98230.34;;;26.33;29.78
49297;BME280;35163;48.878;18.040;2023-06-14T10:41:10;98217.03;;;26.25;29.81
49297;BME280;35163;48.878;18.040;2023-06-14T10:43:46;98222.34;;;26.25;29.11
49297;BME280;35163;48.878;18.040;2023-06-14T10:46:47;98205.03;;;26.12;29.44
49297;BME280;35163;48.878;18.040;2023-06-14T10:49:55;98221.13;;;26.19;29.34
49297;BME280;35163;48.878;18.040;2023-06-14T10:52:40;98216.84;;;26.18;29.23
49297;BME280;35163;48.878;18.040;2023-06-14T10:55:18;98221.66;;;26.23;28.58
49297;BME280;35163;48.878;18.040;2023-06-14T11:00:28;98221.44;;;26.16;28.93
49297;BME280;35163;48.878;18.040;2023-06-14T11:03:36;98216.00;;;26.17;28.41
49297;BME280;35163;48.878;18.040;2023-06-14T11:06:22;98217.31;;;26.13;29.08
49297;BME280;35163;48.878;18.040;2023-06-14T11:12:31;98198.66;;;26.05;28.59
49297;BME280;35163;48.878;18.040;2023-06-14T11:15:37;98198.00;;;26.03;28.81
49297;BME280;35163;48.878;18.040;2023-06-14T11:18:06;98204.34;;;26.10;27.43
49297;BME280;35163;48.878;18.040;2023-06-14T11:24:02;98201.03;;;26.08;27.83
49297;BME280;35163;48.878;18.040;2023-06-14T11:26:40;98205.03;;;26.12;27.22
49297;BME280;35163;48.878;18.040;2023-06-14T11:29:09;98208.03;;;26.17;27.82
49297;BME280;35163;48.878;18.040;2023-06-14T11:31:44;98189.28;;;26.11;28.13
49297;BME280;35163;48.878;18.040;2023-06-14T11:34:20;98203.13;;;26.23;26.96
49297;BME280;35163;48.878;18.040;2023-06-14T11:36:48;98183.88;;;26.20;27.82
49297;BME280;35163;48.878;18.040;2023-06-14T11:39:43;98179.75;;;26.18;27.20
49297;BME280;35163;48.878;18.040;2023-06-14T11:42:31;98198.19;;;26.28;29.13
49297;BME280;35163;48.878;18.040;2023-06-14T11:45:01;98187.59;;;26.28;28.44
49297;BME280;35163;48.878;18.040;2023-06-14T11:47:38;98193.56;;;26.30;27.38
49297;BME280;35163;48.878;18.040;2023-06-14T11:50:08;98194.84;;;26.26;26.15
49297;BME280;35163;48.878;18.040;2023-06-14T11:52:36;98187.41;;;26.03;26.59
49297;BME280;35163;48.878;18.040;2023-06-14T11:55:03;98192.88;;;25.83;28.80
49297;BME280;35163;48.878;18.040;2023-06-14T11:57:36;98189.63;;;25.71;27.90
49297;BME280;35163;48.878;18.040;2023-06-14T12:00:04;98191.34;;;25.62;29.41
49297;BME280;35163;48.878;18.040;2023-06-14T12:02:42;98192.78;;;25.56;28.88
49297;BME280;35163;48.878;18.040;2023-06-14T12:05:09;98188.06;;;25.50;29.80
49297;BME280;35163;48.878;18.040;2023-06-14T12:07:37;98187.91;;;25.52;30.58
49297;BME280;35163;48.878;18.040;2023-06-14T12:10:04;98187.44;;;25.66;30.21
49297;BME280;35163;48.878;18.040;2023-06-14T12:12:36;98190.53;;;25.80;30.04
49297;BME280;35163;48.878;18.040;2023-06-14T12:15:07;98181.53;;;25.91;30.26
49297;BME280;35163;48.878;18.040;2023-06-14T12:17:44;98190.38;;;26.00;30.26
49297;BME280;35163;48.878;18.040;2023-06-14T12:20:13;98193.03;;;26.00;30.33
49297;BME280;35163;48.878;18.040;2023-06-14T12:25:32;98186.63;;;25.84;30.00
49297;BME280;35163;48.878;18.040;2023-06-14T12:28:03;98187.19;;;25.78;29.51
49297;BME280;35163;48.878;18.040;2023-06-14T12:30:32;98186.00;;;25.72;30.50
49297;BME280;35163;48.878;18.040;2023-06-14T12:32:59;98179.66;;;25.65;29.52
49297;BME280;35163;48.878;18.040;2023-06-14T12:35:26;98185.38;;;25.60;28.41
49297;BME280;35163;48.878;18.040;2023-06-14T12:37:56;98182.72;;;25.60;30.78
49297;BME280;35163;48.878;18.040;2023-06-14T12:40:23;98186.19;;;25.60;29.99
49297;BME280;35163;48.878;18.040;2023-06-14T12:42:50;98184.16;;;25.54;29.17
49297;BME280;35163;48.878;18.040;2023-06-14T12:45:19;98186.97;;;25.53;29.92
49297;BME280;35163;48.878;18.040;2023-06-14T12:47:46;98189.75;;;25.51;28.95
49297;BME280;35163;48.878;18.040;2023-06-14T12:50:13;98184.22;;;25.44;29.52
49297;BME280;35163;48.878;18.040;2023-06-14T12:52:40;98185.28;;;25.33;29.65
49297;BME280;35163;48.878;18.040;2023-06-14T12:55:07;98179.81;;;25.35;29.78
49297;BME280;35163;48.878;18.040;2023-06-14T12:57:34;98177.88;;;25.37;29.38
49297;BME280;35163;48.878;18.040;2023-06-14T13:00:04;98175.91;;;25.39;31.00
49297;BME280;35163;48.878;18.040;2023-06-14T13:02:32;98180.06;;;25.42;30.14
49297;BME280;35163;48.878;18.040;2023-06-14T13:04:59;98183.53;;;25.42;30.06
49297;BME280;35163;48.878;18.040;2023-06-14T13:07:30;98178.94;;;25.44;31.35
49297;BME280;35163;48.878;18.040;2023-06-14T13:09:57;98179.31;;;25.50;31.33
49297;BME280;35163;48.878;18.040;2023-06-14T13:12:24;98175.06;;;25.57;30.97
49297;BME280;35163;48.878;18.040;2023-06-14T13:14:52;98171.31;;;25.59;31.17
49297;BME280;35163;48.878;18.040;2023-06-14T13:17:19;98176.28;;;25.63;31.05
49297;BME280;35163;48.878;18.040;2023-06-14T13:19:46;98163.63;;;25.66;30.97
49297;BME280;35163;48.878;18.040;2023-06-14T13:22:13;98163.78;;;25.65;30.98
49297;BME280;35163;48.878;18.040;2023-06-14T13:24:40;98175.59;;;25.60;30.47
49297;BME280;35163;48.878;18.040;2023-06-14T13:27:07;98174.09;;;25.58;30.53
49297;BME280;35163;48.878;18.040;2023-06-14T13:29:34;98167.97;;;25.57;31.03
49297;BME280;35163;48.878;18.040;2023-06-14T13:32:03;98174.41;;;25.55;30.29
49297;BME280;35163;48.878;18.040;2023-06-14T13:34:30;98175.91;;;25.57;30.66
49297;BME280;35163;48.878;18.040;2023-06-14T13:36:57;98172.16;;;25.60;30.59